Time;durP1;ratioP1;P1;durP2;ratioP2;P2;SDS_P1;SDS_P2;PMS_P1;PMS_P2;Temp;Humidity;BMP_temperature;BMP_pressure;BME280_temperature;BME280_humidity;BME280_pressure;Samples;Min_cycle;Max_cycle;Signal;HPM_P1;HPM_P2
2024/03/12 00:01:19;;;;;;;;;;;8.70;96.90;;;;;;5060512;28;19912;-87
2024/03/12 00:03:45;;;;;;;;;;;8.70;95.00;;;;;;5070107;28;19923;-88
2024/03/12 00:06:10;;;;;;;;;;;8.70;94.10;;;;;;5065000;28;19913;-85
2024/03/12 00:08:36;;;;;;;;;;;8.70;92.90;;;;;;5078600;28;19913;-87
2024/03/12 00:11:03;;;;;;;;;;;8.70;92.80;;;;;;5061660;28;20023;-86
2024/03/12 00:13:29;;;;;;;;;;;8.70;91.10;;;;;;5074903;28;20003;-87
2024/03/12 00:15:55;;;;;;;;;;;8.70;89.60;;;;;;5065542;28;19952;-85
2024/03/12 00:18:25;;;;;;;;;;;8.70;87.30;;;;;;5061281;28;19977;-85
2024/03/12 00:20:51;;;;;;;;;;;8.70;86.40;;;;;;5055217;28;20433;-84
2024/03/12 00:23:16;;;;;;;;;;;8.70;84.20;;;;;;5075041;28;19999;-85
2024/03/12 00:25:42;;;;;;;;;;;8.70;83.80;;;;;;5075982;28;19944;-85
2024/03/12 00:28:08;;;;;;;;;;;8.70;81.00;;;;;;5058624;28;19912;-86
2024/03/12 00:30:34;;;;;;;;;;;8.70;76.90;;;;;;5054387;28;19920;-85
2024/03/12 00:33:00;;;;;;;;;;;8.70;77.10;;;;;;5073531;28;19908;-85
2024/03/12 00:35:29;;;;;;;;;;;8.70;76.00;;;;;;5076598;28;19948;-85
2024/03/12 00:37:56;;;;;;;;;;;8.70;74.80;;;;;;5078576;28;19919;-86
2024/03/12 00:40:31;;;;;;;;;;;8.70;73.70;;;;;;5078043;28;19962;-85
2024/03/12 00:42:56;;;;;;;;;;;8.70;71.30;;;;;;5058795;28;19919;-86
2024/03/12 00:45:25;;;;;;;;;;;8.70;67.60;;;;;;5055273;28;20414;-85
2024/03/12 00:47:52;;;;;;;;;;;8.70;66.10;;;;;;5056442;28;19908;-85
2024/03/12 00:50:18;;;;;;;;;;;8.70;65.30;;;;;;5056604;28;20283;-86
2024/03/12 00:52:43;;;;;;;;;;;8.70;62.70;;;;;;5073665;28;19912;-86
2024/03/12 00:55:09;;;;;;;;;;;8.70;61.90;;;;;;5076139;28;19908;-83
2024/03/12 00:57:35;;;;;;;;;;;8.70;62.80;;;;;;5073038;28;20012;-86
2024/03/12 01:00:01;;;;;;;;;;;8.70;64.50;;;;;;5062698;28;19920;-87
2024/03/12 01:02:30;;;;;;;;;;;8.60;67.30;;;;;;5094543;23;19925;-87
2024/03/12 01:04:58;;;;;;;;;;;8.60;70.70;;;;;;5043816;28;19912;-88
2024/03/12 01:07:25;;;;;;;;;;;8.60;72.00;;;;;;5044628;28;19913;-86
2024/03/12 01:09:50;;;;;;;;;;;8.60;76.90;;;;;;5050357;28;19901;-85
2024/03/12 01:12:16;;;;;;;;;;;8.60;80.80;;;;;;5050484;28;19908;-87
2024/03/12 01:14:42;;;;;;;;;;;8.60;86.00;;;;;;5058940;28;19909;-87
2024/03/12 01:17:07;;;;;;;;;;;8.60;90.50;;;;;;5049948;28;19913;-84
2024/03/12 01:19:33;;;;;;;;;;;8.50;91.30;;;;;;5062944;28;19988;-85
2024/03/12 01:21:59;;;;;;;;;;;8.50;92.80;;;;;;5085186;28;20445;-84
2024/03/12 01:24:26;;;;;;;;;;;8.50;95.40;;;;;;5060497;28;19909;-84
2024/03/12 01:26:52;;;;;;;;;;;8.50;98.00;;;;;;5053089;28;19971;-85
2024/03/12 01:29:17;;;;;;;;;;;8.50;98.30;;;;;;5059468;28;19909;-86
2024/03/12 01:31:44;;;;;;;;;;;8.50;99.00;;;;;;5052621;28;19917;-86
2024/03/12 01:34:10;;;;;;;;;;;8.50;99.90;;;;;;5053488;28;19909;-86
2024/03/12 01:36:36;;;;;;;;;;;8.50;99.90;;;;;;5051085;28;19913;-85
2024/03/12 01:39:07;;;;;;;;;;;8.50;99.90;;;;;;5089081;28;19913;-86
2024/03/12 01:41:34;;;;;;;;;;;8.40;99.90;;;;;;5066020;28;19943;-85
2024/03/12 01:44:02;;;;;;;;;;;8.40;99.90;;;;;;5063258;28;20381;-85
2024/03/12 01:46:30;;;;;;;;;;;8.40;99.90;;;;;;5091770;28;20474;-85
2024/03/12 01:48:56;;;;;;;;;;;8.40;99.90;;;;;;5064240;28;19893;-84
2024/03/12 01:51:21;;;;;;;;;;;8.40;99.90;;;;;;5056552;28;19995;-84
2024/03/12 01:53:47;;;;;;;;;;;8.40;99.90;;;;;;5062051;28;19924;-87
2024/03/12 01:56:13;;;;;;;;;;;8.40;99.90;;;;;;5065411;28;19921;-86
2024/03/12 01:58:40;;;;;;;;;;;8.40;99.90;;;;;;5059560;28;19927;-85
2024/03/12 02:01:06;;;;;;;;;;;8.50;99.90;;;;;;5061932;28;19944;-85
2024/03/12 02:03:32;;;;;;;;;;;8.40;99.90;;;;;;5063896;28;19928;-85
2024/03/12 02:05:58;;;;;;;;;;;8.50;99.80;;;;;;5064530;28;19909;-85
2024/03/12 02:08:23;;;;;;;;;;;8.40;98.40;;;;;;5059297;28;20002;-85
2024/03/12 02:10:49;;;;;;;;;;;8.50;97.90;;;;;;5064173;28;19940;-85
2024/03/12 02:13:14;;;;;;;;;;;8.50;97.70;;;;;;5052845;28;19909;-86
2024/03/12 02:15:41;;;;;;;;;;;8.50;97.60;;;;;;5059032;28;19909;-85
2024/03/12 02:18:10;;;;;;;;;;;8.50;96.20;;;;;;5066045;28;19916;-85
2024/03/12 02:20:36;;;;;;;;;;;8.50;95.90;;;;;;5055928;28;20023;-86
2024/03/12 02:23:02;;;;;;;;;;;8.50;94.50;;;;;;5055741;28;19917;-86
2024/03/12 02:25:27;;;;;;;;;;;8.50;93.60;;;;;;5051106;28;19936;-85
2024/03/12 02:27:53;;;;;;;;;;;8.50;91.70;;;;;;5052331;28;19940;-84
2024/03/12 02:30:18;;;;;;;;;;;8.40;89.80;;;;;;5064903;28;20267;-85
2024/03/12 02:32:46;;;;;;;;;;;8.40;85.80;;;;;;5063886;28;19995;-84
2024/03/12 02:35:13;;;;;;;;;;;8.40;84.30;;;;;;5050123;28;20366;-84
2024/03/12 02:37:41;;;;;;;;;;;8.40;80.70;;;;;;5051965;28;19916;-85
2024/03/12 02:40:09;;;;;;;;;;;8.40;77.00;;;;;;5049958;28;20004;-86
2024/03/12 02:42:36;;;;;;;;;;;8.30;69.00;;;;;;5056380;28;19916;-85
2024/03/12 02:45:01;;;;;;;;;;;8.30;57.50;;;;;;5087646;28;19919;-84
2024/03/12 02:47:27;;;;;;;;;;;8.30;52.00;;;;;;5051656;28;20000;-86
2024/03/12 02:49:52;;;;;;;;;;;8.30;41.20;;;;;;5054658;28;19913;-85
2024/03/12 02:52:18;;;;;;;;;;;8.20;34.30;;;;;;5053952;28;19917;-86
2024/03/12 02:54:43;;;;;;;;;;;8.20;28.80;;;;;;5057101;28;19916;-86
2024/03/12 02:57:09;;;;;;;;;;;8.20;26.40;;;;;;5060431;28;20469;-85
2024/03/12 02:59:34;;;;;;;;;;;8.20;24.20;;;;;;5063324;28;19909;-86
2024/03/12 03:02:00;;;;;;;;;;;8.10;21.60;;;;;;5054127;28;19964;-85
2024/03/12 03:04:27;;;;;;;;;;;8.10;21.10;;;;;;5053674;28;19913;-85
2024/03/12 03:06:53;;;;;;;;;;;8.10;19.50;;;;;;5087610;28;19972;-86
2024/03/12 03:09:18;;;;;;;;;;;8.10;21.70;;;;;;5091194;28;19987;-86
2024/03/12 03:11:45;;;;;;;;;;;8.10;24.10;;;;;;5049216;28;19913;-85
2024/03/12 03:14:10;;;;;;;;;;;8.10;26.60;;;;;;5053127;28;19909;-85
2024/03/12 03:16:36;;;;;;;;;;;8.10;30.00;;;;;;5053896;28;20317;-86
2024/03/12 03:19:01;;;;;;;;;;;8.10;33.40;;;;;;5054116;28;19916;-85
2024/03/12 03:21:27;;;;;;;;;;;8.10;37.70;;;;;;5062328;28;19913;-85
2024/03/12 03:23:52;;;;;;;;;;;8.10;42.00;;;;;;5056336;28;19920;-85
2024/03/12 03:26:18;;;;;;;;;;;8.10;44.70;;;;;;5064301;28;19924;-85
2024/03/12 03:28:44;;;;;;;;;;;8.10;49.90;;;;;;5050586;28;19956;-86
2024/03/12 03:31:10;;;;;;;;;;;8.20;54.10;;;;;;5062486;28;19909;-85
2024/03/12 03:33:37;;;;;;;;;;;8.20;57.80;;;;;;5063348;28;19913;-85
2024/03/12 03:36:06;;;;;;;;;;;8.20;61.80;;;;;;5047246;28;19909;-86
2024/03/12 03:38:33;;;;;;;;;;;8.20;65.60;;;;;;5065232;28;19920;-86
2024/03/12 03:40:59;;;;;;;;;;;8.20;68.20;;;;;;5061781;28;19980;-86
2024/03/12 03:43:24;;;;;;;;;;;8.20;68.40;;;;;;5059801;28;19955;-85
2024/03/12 03:45:50;;;;;;;;;;;8.20;69.90;;;;;;5059177;28;19939;-85
2024/03/12 03:48:15;;;;;;;;;;;8.20;73.70;;;;;;5057235;28;19913;-86
2024/03/12 03:50:41;;;;;;;;;;;8.20;79.90;;;;;;5095745;28;20298;-85
2024/03/12 03:53:09;;;;;;;;;;;8.20;81.40;;;;;;5061181;28;19909;-85
2024/03/12 03:55:35;;;;;;;;;;;8.20;77.90;;;;;;5085199;28;19913;-85
2024/03/12 03:58:00;;;;;;;;;;;8.20;75.20;;;;;;5063775;28;19915;-86
2024/03/12 04:00:32;;;;;;;;;;;8.10;75.10;;;;;;5062247;28;20359;-86
2024/03/12 04:02:57;;;;;;;;;;;8.10;73.60;;;;;;5088874;28;19917;-85
2024/03/12 04:05:23;;;;;;;;;;;8.20;73.90;;;;;;5060922;28;19955;-85
2024/03/12 04:07:49;;;;;;;;;;;8.20;74.70;;;;;;5064093;28;19971;-85
2024/03/12 04:10:15;;;;;;;;;;;8.20;71.00;;;;;;5087065;28;20326;-85
2024/03/12 04:12:46;;;;;;;;;;;8.20;66.50;;;;;;5093479;28;19916;-85
2024/03/12 04:15:12;;;;;;;;;;;8.20;61.30;;;;;;5062058;28;20274;-86
2024/03/12 04:17:38;;;;;;;;;;;8.20;59.90;;;;;;5057021;28;19909;-85
2024/03/12 04:20:10;;;;;;;;;;;8.20;59.00;;;;;;5042354;28;19932;-85
2024/03/12 04:22:36;;;;;;;;;;;8.20;56.20;;;;;;5043016;28;19952;-86
2024/03/12 04:25:04;;;;;;;;;;;8.20;54.00;;;;;;5053975;28;19932;-85
2024/03/12 04:27:29;;;;;;;;;;;8.20;53.20;;;;;;5082785;28;19909;-86
2024/03/12 04:29:55;;;;;;;;;;;8.20;53.10;;;;;;5056015;28;19930;-86
2024/03/12 04:32:20;;;;;;;;;;;8.10;51.50;;;;;;5061415;28;19984;-86
2024/03/12 04:34:46;;;;;;;;;;;8.10;54.50;;;;;;5057924;28;19910;-85
2024/03/12 04:37:12;;;;;;;;;;;8.10;59.70;;;;;;5060282;28;19916;-85
2024/03/12 04:39:38;;;;;;;;;;;8.10;62.90;;;;;;5059053;28;19951;-86
2024/03/12 04:42:09;;;;;;;;;;;8.10;66.60;;;;;;5050248;28;19935;-85
2024/03/12 04:44:34;;;;;;;;;;;8.10;69.90;;;;;;5056343;28;20386;-85
2024/03/12 04:47:00;;;;;;;;;;;8.10;74.40;;;;;;5061410;28;19913;-85
2024/03/12 04:49:26;;;;;;;;;;;8.10;78.20;;;;;;5060047;28;19909;-87
2024/03/12 04:51:51;;;;;;;;;;;8.10;79.70;;;;;;5081623;28;19920;-86
2024/03/12 04:54:18;;;;;;;;;;;8.10;81.00;;;;;;5062922;28;19909;-86
2024/03/12 04:56:44;;;;;;;;;;;8.10;83.30;;;;;;5051616;28;19940;-86
2024/03/12 04:59:10;;;;;;;;;;;8.10;86.50;;;;;;5052422;28;20076;-86
2024/03/12 05:01:35;;;;;;;;;;;8.10;88.50;;;;;;5059015;28;19912;-85
2024/03/12 05:04:01;;;;;;;;;;;8.10;88.50;;;;;;5094262;28;19913;-86
2024/03/12 05:06:27;;;;;;;;;;;8.10;87.60;;;;;;5061729;28;19916;-86
2024/03/12 05:08:55;;;;;;;;;;;8.10;85.00;;;;;;5042854;28;20406;-85
2024/03/12 05:11:21;;;;;;;;;;;8.10;85.80;;;;;;5049703;28;20487;-86
2024/03/12 05:13:47;;;;;;;;;;;8.00;81.80;;;;;;5061470;28;20014;-86
2024/03/12 05:16:13;;;;;;;;;;;8.00;81.40;;;;;;5060735;28;19972;-87
2024/03/12 05:18:38;;;;;;;;;;;8.00;81.70;;;;;;5054861;28;19909;-86
2024/03/12 05:21:04;;;;;;;;;;;8.10;83.40;;;;;;5055108;28;19920;-86
2024/03/12 05:23:29;;;;;;;;;;;8.10;81.10;;;;;;5063231;28;19909;-87
2024/03/12 05:25:55;;;;;;;;;;;8.10;80.30;;;;;;5062662;28;19908;-86
2024/03/12 05:28:21;;;;;;;;;;;8.10;77.50;;;;;;5059830;28;19942;-85
2024/03/12 05:30:49;;;;;;;;;;;8.10;74.20;;;;;;5062933;28;19920;-85
2024/03/12 05:33:15;;;;;;;;;;;8.10;69.20;;;;;;5053793;28;19910;-85
2024/03/12 05:35:47;;;;;;;;;;;8.10;68.00;;;;;;5060849;28;19931;-85
2024/03/12 05:38:30;;;;;;;;;;;8.00;66.50;;;;;;5061871;28;19944;-86
2024/03/12 05:49:06;;;;;;;;;;;8.00;68.90;;;;;;5045204;28;19916;-86
2024/03/12 05:51:37;;;;;;;;;;;8.00;73.30;;;;;;5057389;28;19912;-85
2024/03/12 05:54:05;;;;;;;;;;;8.00;77.70;;;;;;5046017;28;20441;-86
2024/03/12 05:56:30;;;;;;;;;;;8.00;81.10;;;;;;5083850;28;20294;-85
2024/03/12 05:58:56;;;;;;;;;;;8.00;80.50;;;;;;5059150;28;20012;-86
2024/03/12 06:01:23;;;;;;;;;;;8.00;81.20;;;;;;5060024;28;19923;-85
2024/03/12 06:03:49;;;;;;;;;;;8.00;83.90;;;;;;5079892;28;19996;-86
2024/03/12 06:06:15;;;;;;;;;;;7.90;84.70;;;;;;5049222;28;19913;-87
2024/03/12 06:08:41;;;;;;;;;;;7.90;88.70;;;;;;5053875;28;19913;-86
2024/03/12 06:11:06;;;;;;;;;;;7.90;90.70;;;;;;5053667;28;19913;-85
2024/03/12 06:13:32;;;;;;;;;;;7.90;91.30;;;;;;5054842;28;19923;-85
2024/03/12 06:15:58;;;;;;;;;;;7.90;92.30;;;;;;5088214;28;19939;-85
2024/03/12 06:18:23;;;;;;;;;;;7.90;91.70;;;;;;5062795;28;19955;-86
2024/03/12 06:20:50;;;;;;;;;;;7.90;91.10;;;;;;5064409;28;19913;-86
2024/03/12 06:23:18;;;;;;;;;;;7.90;90.00;;;;;;5064469;28;19931;-86
2024/03/12 06:25:44;;;;;;;;;;;8.00;86.90;;;;;;5064044;28;19951;-86
2024/03/12 06:28:11;;;;;;;;;;;8.00;84.80;;;;;;5062705;28;20370;-86
2024/03/12 06:30:38;;;;;;;;;;;8.00;80.40;;;;;;5054804;28;19932;-87
2024/03/12 06:33:04;;;;;;;;;;;8.00;79.40;;;;;;5059042;28;19913;-86
2024/03/12 06:35:29;;;;;;;;;;;8.00;77.90;;;;;;5053967;28;19917;-85
2024/03/12 06:37:55;;;;;;;;;;;8.00;75.80;;;;;;5056600;28;20385;-86
2024/03/12 06:40:25;;;;;;;;;;;8.00;73.40;;;;;;5080342;28;19909;-85
2024/03/12 06:42:51;;;;;;;;;;;8.00;69.40;;;;;;5057338;28;20359;-86
2024/03/12 06:45:22;;;;;;;;;;;8.00;66.30;;;;;;5054626;28;20000;-86
2024/03/12 06:47:55;;;;;;;;;;;8.00;62.00;;;;;;5054418;28;19972;-88
2024/03/12 06:50:29;;;;;;;;;;;8.00;62.60;;;;;;5058904;28;20405;-85
2024/03/12 06:53:01;;;;;;;;;;;8.00;60.50;;;;;;5062015;28;20278;-87
2024/03/12 06:55:36;;;;;;;;;;;8.00;58.40;;;;;;5060721;28;19913;-87
2024/03/12 06:58:11;;;;;;;;;;;8.00;55.30;;;;;;5048037;28;19916;-86
2024/03/12 07:00:40;;;;;;;;;;;8.00;55.00;;;;;;5055082;28;19978;-86
2024/03/12 07:03:06;;;;;;;;;;;8.10;59.50;;;;;;5085246;22;19916;-83
2024/03/12 07:05:36;;;;;;;;;;;8.20;58.10;;;;;;5074039;28;19941;-84
2024/03/12 07:08:01;;;;;;;;;;;8.20;53.30;;;;;;5082404;28;19913;-83
2024/03/12 07:10:29;;;;;;;;;;;8.30;42.40;;;;;;5081616;28;19912;-84
2024/03/12 07:12:58;;;;;;;;;;;8.30;31.70;;;;;;5077862;28;19966;-83
2024/03/12 07:15:24;;;;;;;;;;;8.30;25.10;;;;;;5078345;28;19966;-84
2024/03/12 07:17:50;;;;;;;;;;;8.30;22.20;;;;;;5079475;28;19912;-86
2024/03/12 07:20:20;;;;;;;;;;;8.30;20.10;;;;;;5075013;28;19940;-83
2024/03/12 07:22:45;;;;;;;;;;;8.30;20.40;;;;;;5075983;28;19932;-83
2024/03/12 07:25:11;;;;;;;;;;;8.40;20.00;;;;;;5070236;28;19912;-84
2024/03/12 07:27:38;;;;;;;;;;;8.40;20.30;;;;;;5066639;28;19955;-84
2024/03/12 07:30:10;;;;;;;;;;;8.40;19.70;;;;;;5061684;28;19921;-82
2024/03/12 07:32:37;;;;;;;;;;;8.50;18.70;;;;;;5066865;28;19913;-83
2024/03/12 07:35:03;;;;;;;;;;;8.50;12.00;;;;;;5070635;28;19920;-84
2024/03/12 07:37:29;;;;;;;;;;;8.50;7.20;;;;;;5074031;28;19913;-84
2024/03/12 07:39:54;;;;;;;;;;;8.50;3.90;;;;;;5063865;28;20431;-85
2024/03/12 07:42:20;;;;;;;;;;;8.50;2.20;;;;;;5072685;28;19912;-84
2024/03/12 07:44:48;;;;;;;;;;;8.50;1.00;;;;;;5070980;28;19995;-81
2024/03/12 07:47:17;;;;;;;;;;;8.50;1.00;;;;;;5075034;28;20301;-86
2024/03/12 07:49:43;;;;;;;;;;;8.50;1.00;;;;;;5064428;28;19912;-84
2024/03/12 07:52:13;;;;;;;;;;;8.50;1.00;;;;;;5072808;28;19958;-84
2024/03/12 07:54:38;;;;;;;;;;;8.50;1.00;;;;;;5074892;28;19913;-85
2024/03/12 07:57:11;;;;;;;;;;;8.50;1.00;;;;;;5073231;28;19916;-85
2024/03/12 07:59:37;;;;;;;;;;;8.60;1.00;;;;;;5072383;28;19967;-85
2024/03/12 08:02:11;;;;;;;;;;;8.60;1.00;;;;;;5073244;28;19927;-85
2024/03/12 08:04:42;;;;;;;;;;;8.60;1.00;;;;;;5076957;28;19921;-85
2024/03/12 08:07:14;;;;;;;;;;;8.60;1.00;;;;;;5059368;28;19979;-84
2024/03/12 08:09:42;;;;;;;;;;;8.70;1.00;;;;;;5069240;28;20275;-85
2024/03/12 08:12:07;;;;;;;;;;;8.70;1.00;;;;;;5066043;28;19952;-83
2024/03/12 08:14:36;;;;;;;;;;;8.80;1.00;;;;;;5071574;28;19912;-85
2024/03/12 08:17:03;;;;;;;;;;;8.80;1.00;;;;;;5069110;28;19909;-85
2024/03/12 08:19:28;;;;;;;;;;;8.90;1.00;;;;;;5065929;28;19919;-84
2024/03/12 08:21:54;;;;;;;;;;;8.90;1.00;;;;;;5077333;28;19952;-85
2024/03/12 08:24:20;;;;;;;;;;;8.90;1.00;;;;;;5073855;28;20178;-85
2024/03/12 08:26:47;;;;;;;;;;;8.90;1.00;;;;;;5067358;28;20003;-86
2024/03/12 08:29:16;;;;;;;;;;;8.90;1.00;;;;;;5073547;28;19920;-85
2024/03/12 08:31:42;;;;;;;;;;;8.90;1.00;;;;;;5075275;28;19966;-84
2024/03/12 08:34:15;;;;;;;;;;;9.00;1.00;;;;;;5065183;28;19912;-85
2024/03/12 08:36:45;;;;;;;;;;;9.00;1.00;;;;;;5061347;28;20301;-84
2024/03/12 08:39:11;;;;;;;;;;;9.10;1.00;;;;;;5073067;28;19920;-85
2024/03/12 08:41:40;;;;;;;;;;;9.10;1.00;;;;;;5070568;28;19916;-85
2024/03/12 08:44:06;;;;;;;;;;;9.00;1.00;;;;;;5074565;28;19955;-84
2024/03/12 08:46:32;;;;;;;;;;;8.90;1.00;;;;;;5070367;28;19913;-84
2024/03/12 08:48:58;;;;;;;;;;;8.90;1.00;;;;;;5064440;28;20002;-85
2024/03/12 08:51:24;;;;;;;;;;;8.80;1.00;;;;;;5074005;28;20437;-83
2024/03/12 08:53:49;;;;;;;;;;;8.70;1.00;;;;;;5074436;28;19922;-85
2024/03/12 08:56:15;;;;;;;;;;;8.60;1.00;;;;;;5065686;28;19920;-84
2024/03/12 08:58:40;;;;;;;;;;;8.60;1.00;;;;;;5053592;28;19913;-84
2024/03/12 09:01:06;;;;;;;;;;;8.60;1.00;;;;;;5069534;28;19917;-85
2024/03/12 09:03:31;;;;;;;;;;;8.60;1.00;;;;;;5073479;28;19912;-85
2024/03/12 09:05:58;;;;;;;;;;;8.70;1.00;;;;;;5068364;28;19920;-85
2024/03/12 09:08:24;;;;;;;;;;;8.80;1.00;;;;;;5073852;28;20274;-84
2024/03/12 09:10:49;;;;;;;;;;;8.80;1.00;;;;;;5070801;28;19909;-85
2024/03/12 09:13:21;;;;;;;;;;;8.90;1.00;;;;;;5070902;28;20503;-84
2024/03/12 09:15:51;;;;;;;;;;;8.90;1.00;;;;;;5059913;28;19995;-85
2024/03/12 09:18:20;;;;;;;;;;;9.00;1.00;;;;;;5072586;28;19993;-84
2024/03/12 09:20:46;;;;;;;;;;;9.10;1.00;;;;;;5075631;28;19912;-84
2024/03/12 09:23:13;;;;;;;;;;;9.10;1.00;;;;;;5070630;28;19917;-84
2024/03/12 09:25:40;;;;;;;;;;;9.20;1.00;;;;;;5070485;28;19913;-84
2024/03/12 09:28:06;;;;;;;;;;;9.30;1.00;;;;;;5074672;28;20003;-84
2024/03/12 09:30:34;;;;;;;;;;;9.40;1.00;;;;;;5071806;28;20408;-86
2024/03/12 09:32:59;;;;;;;;;;;9.60;1.00;;;;;;5063413;28;19940;-85
2024/03/12 09:35:25;;;;;;;;;;;9.70;1.00;;;;;;5069289;28;20267;-85
2024/03/12 09:37:51;;;;;;;;;;;9.90;1.00;;;;;;5069636;28;19951;-85
2024/03/12 09:40:17;;;;;;;;;;;10.00;1.00;;;;;;5061081;28;19924;-85
2024/03/12 09:42:44;;;;;;;;;;;10.10;1.00;;;;;;5059437;28;19932;-83
2024/03/12 09:45:11;;;;;;;;;;;10.50;1.00;;;;;;5065612;28;19912;-85
2024/03/12 09:47:36;;;;;;;;;;;11.40;99.90;;;;;;5066565;28;19940;-83
2024/03/12 09:50:05;;;;;;;;;;;14.40;99.90;;;;;;5061645;28;19912;-85
2024/03/12 09:52:31;;;;;;;;;;;16.50;1.00;;;;;;5075976;28;19912;-85
2024/03/12 09:54:57;;;;;;;;;;;16.40;1.00;;;;;;5077765;28;19916;-83
2024/03/12 09:57:24;;;;;;;;;;;16.00;1.00;;;;;;5071236;28;19909;-84
2024/03/12 09:59:49;;;;;;;;;;;16.60;1.00;;;;;;5076117;28;19912;-84
2024/03/12 10:02:15;;;;;;;;;;;17.60;1.00;;;;;;5075719;28;20411;-86
2024/03/12 10:04:40;;;;;;;;;;;18.60;1.00;;;;;;5077028;28;20015;-86
2024/03/12 10:07:11;;;;;;;;;;;19.20;1.00;;;;;;5066175;28;19928;-85
2024/03/12 10:09:37;;;;;;;;;;;18.60;99.90;;;;;;5069532;28;19937;-85
2024/03/12 10:12:03;;;;;;;;;;;17.50;99.90;;;;;;5080896;28;20005;-84
2024/03/12 10:14:29;;;;;;;;;;;16.40;99.90;;;;;;5073452;28;19919;-85
2024/03/12 10:17:09;;;;;;;;;;;15.40;99.90;;;;;;5069953;28;19923;-85
2024/03/12 10:19:36;;;;;;;;;;;14.50;1.00;;;;;;5078260;28;19914;-84
2024/03/12 10:22:09;;;;;;;;;;;13.60;1.00;;;;;;5077250;28;19983;-83
2024/03/12 10:24:36;;;;;;;;;;;13.10;1.00;;;;;;5068087;28;19964;-84
2024/03/12 10:27:14;;;;;;;;;;;12.60;44.00;;;;;;5069415;28;19915;-84
2024/03/12 10:29:43;;;;;;;;;;;12.40;99.90;;;;;;5058528;28;19913;-84
2024/03/12 10:32:21;;;;;;;;;;;12.10;99.90;;;;;;5071108;28;19908;-85
2024/03/12 10:34:47;;;;;;;;;;;11.90;1.00;;;;;;5069724;28;19913;-85
2024/03/12 10:37:45;;;;;;;;;;;11.80;1.00;;;;;;5077091;28;19912;-84
2024/03/12 10:40:18;;;;;;;;;;;11.80;1.00;;;;;;5058160;28;19913;-85
2024/03/12 10:42:57;;;;;;;;;;;11.90;92.80;;;;;;5069455;28;19920;-85
2024/03/12 10:45:27;;;;;;;;;;;12.00;19.50;;;;;;5072864;28;19959;-86
2024/03/12 10:47:54;;;;;;;;;;;12.00;1.00;;;;;;5068405;28;19972;-85
2024/03/12 10:50:22;;;;;;;;;;;12.00;1.00;;;;;;5070483;28;19980;-84
2024/03/12 10:52:50;;;;;;;;;;;12.10;1.00;;;;;;5063555;28;19913;-85
2024/03/12 10:55:21;;;;;;;;;;;12.20;1.00;;;;;;5064602;28;19908;-83
2024/03/12 10:57:57;;;;;;;;;;;12.50;1.00;;;;;;5073808;28;19913;-85
2024/03/12 11:00:25;;;;;;;;;;;12.80;99.90;;;;;;5054483;28;19967;-84
2024/03/12 11:02:51;;;;;;;;;;;12.90;99.90;;;;;;5070724;28;20007;-85
2024/03/12 11:05:19;;;;;;;;;;;12.90;99.90;;;;;;5066499;28;19916;-84
2024/03/12 11:07:44;;;;;;;;;;;12.80;99.90;;;;;;5073037;28;19909;-84
2024/03/12 11:10:11;;;;;;;;;;;12.70;99.90;;;;;;5075601;28;19916;-84
2024/03/12 11:12:37;;;;;;;;;;;12.50;99.90;;;;;;5075911;28;19908;-85
2024/03/12 11:15:02;;;;;;;;;;;12.30;99.90;;;;;;5060718;28;19916;-85
2024/03/12 11:17:28;;;;;;;;;;;12.10;99.90;;;;;;5064967;28;19917;-85
2024/03/12 11:19:56;;;;;;;;;;;11.90;1.00;;;;;;5069140;28;19919;-85
2024/03/12 11:22:22;;;;;;;;;;;11.90;1.00;;;;;;5071839;28;19919;-84
2024/03/12 11:24:48;;;;;;;;;;;11.80;1.00;;;;;;5073732;28;19947;-85
2024/03/12 11:27:17;;;;;;;;;;;11.90;1.00;;;;;;5069352;28;20366;-83
2024/03/12 11:30:04;;;;;;;;;;;12.10;99.90;;;;;;5061966;28;20375;-85
2024/03/12 11:32:38;;;;;;;;;;;13.10;99.90;;;;;;5065557;28;19919;-85
2024/03/12 11:35:11;;;;;;;;;;;15.00;1.00;;;;;;5066566;28;20132;-84
2024/03/12 11:37:37;;;;;;;;;;;15.90;1.00;;;;;;5066626;28;19908;-85
2024/03/12 11:40:39;;;;;;;;;;;16.20;1.00;;;;;;5067345;28;19983;-86
2024/03/12 11:43:10;;;;;;;;;;;16.10;1.00;;;;;;5046628;28;19919;-85
2024/03/12 11:45:37;;;;;;;;;;;16.10;99.90;;;;;;5067236;28;19981;-83
2024/03/12 11:48:07;;;;;;;;;;;16.20;99.90;;;;;;5063170;28;20030;-85
2024/03/12 11:50:39;;;;;;;;;;;15.90;99.90;;;;;;5073019;28;20385;-85
2024/03/12 11:53:24;;;;;;;;;;;15.60;99.90;;;;;;5071542;28;20007;-85
2024/03/12 11:55:54;;;;;;;;;;;15.20;99.90;;;;;;5058563;28;19908;-86
2024/03/12 11:58:20;;;;;;;;;;;14.80;99.90;;;;;;5072196;28;19920;-85
2024/03/12 12:00:50;;;;;;;;;;;14.30;99.90;;;;;;5070335;28;19917;-85
2024/03/12 12:03:16;;;;;;;;;;;13.70;1.00;;;;;;5073011;28;19965;-85
2024/03/12 12:05:43;;;;;;;;;;;13.20;1.00;;;;;;5068246;28;19920;-83
2024/03/12 12:08:10;;;;;;;;;;;12.80;1.00;;;;;;5068174;28;19909;-85
2024/03/12 12:10:36;;;;;;;;;;;12.60;1.00;;;;;;5066050;28;19908;-85
2024/03/12 12:13:12;;;;;;;;;;;12.40;1.00;;;;;;5064288;28;20006;-85
2024/03/12 12:15:37;;;;;;;;;;;12.30;1.00;;;;;;5062711;28;19908;-84
2024/03/12 12:18:07;;;;;;;;;;;12.20;1.00;;;;;;5069920;28;20348;-85
2024/03/12 12:20:33;;;;;;;;;;;12.30;1.00;;;;;;5067296;28;19928;-83
2024/03/12 12:22:58;;;;;;;;;;;12.30;1.00;;;;;;5068194;28;19913;-85
2024/03/12 12:25:28;;;;;;;;;;;12.20;1.00;;;;;;5068819;28;19954;-85
2024/03/12 12:27:54;;;;;;;;;;;12.20;1.00;;;;;;5063258;28;19913;-85
2024/03/12 12:30:23;;;;;;;;;;;12.30;1.00;;;;;;5073553;28;20369;-83
2024/03/12 12:32:50;;;;;;;;;;;12.40;1.00;;;;;;5073322;28;19909;-84
2024/03/12 12:35:19;;;;;;;;;;;12.40;1.00;;;;;;5073120;28;19908;-85
2024/03/12 12:37:45;;;;;;;;;;;12.50;1.00;;;;;;5060183;28;20011;-84
2024/03/12 12:40:16;;;;;;;;;;;12.50;1.00;;;;;;5073549;28;20007;-85
2024/03/12 12:42:43;;;;;;;;;;;12.50;1.00;;;;;;5065945;28;19979;-84
2024/03/12 12:45:10;;;;;;;;;;;12.50;1.00;;;;;;5058653;28;19913;-85
2024/03/12 12:47:39;;;;;;;;;;;12.50;1.00;;;;;;5065284;28;19930;-85
2024/03/12 12:50:05;;;;;;;;;;;12.60;1.00;;;;;;5064428;28;19916;-84
2024/03/12 12:52:31;;;;;;;;;;;12.60;1.00;;;;;;5067248;28;19909;-84
2024/03/12 12:54:57;;;;;;;;;;;12.50;1.00;;;;;;5065734;28;20283;-85
2024/03/12 12:57:27;;;;;;;;;;;12.50;1.00;;;;;;5085503;28;19917;-84
2024/03/12 12:59:55;;;;;;;;;;;12.50;1.00;;;;;;5061849;28;19954;-84
2024/03/12 13:02:22;;;;;;;;;;;12.50;1.00;;;;;;5065614;28;19962;-84
2024/03/12 13:04:56;;;;;;;;;;;12.50;1.00;;;;;;5066017;28;19928;-84
2024/03/12 13:07:29;;;;;;;;;;;12.50;1.00;;;;;;5065370;28;20271;-85
2024/03/12 13:09:55;;;;;;;;;;;12.50;1.00;;;;;;5067873;28;19909;-86
2024/03/12 13:12:21;;;;;;;;;;;12.50;1.00;;;;;;5063165;28;19920;-85
2024/03/12 13:14:47;;;;;;;;;;;12.50;1.00;;;;;;5057025;28;19969;-84
2024/03/12 13:17:13;;;;;;;;;;;12.50;1.00;;;;;;5057097;28;19917;-86
2024/03/12 13:19:39;;;;;;;;;;;12.50;1.00;;;;;;5059678;28;20282;-85
2024/03/12 13:22:04;;;;;;;;;;;12.50;1.00;;;;;;5057212;28;19920;-86
2024/03/12 13:24:30;;;;;;;;;;;12.50;1.00;;;;;;5058162;28;19913;-85
2024/03/12 13:26:56;;;;;;;;;;;12.60;1.00;;;;;;5052961;28;20337;-86
2024/03/12 13:29:21;;;;;;;;;;;12.60;1.00;;;;;;5057983;28;19969;-86
2024/03/12 13:31:48;;;;;;;;;;;12.70;1.00;;;;;;5065251;28;20053;-84
2024/03/12 13:34:13;;;;;;;;;;;12.90;1.00;;;;;;5061069;28;19916;-85
2024/03/12 13:36:39;;;;;;;;;;;13.00;1.00;;;;;;5065408;28;20371;-86
2024/03/12 13:39:06;;;;;;;;;;;13.20;1.00;;;;;;5071715;28;19995;-86
2024/03/12 13:41:32;;;;;;;;;;;13.30;1.00;;;;;;5066639;28;19913;-86
2024/03/12 13:43:58;;;;;;;;;;;13.40;1.00;;;;;;5061659;28;19920;-85
2024/03/12 13:46:23;;;;;;;;;;;13.50;1.00;;;;;;5061627;28;19908;-85
2024/03/12 13:49:07;;;;;;;;;;;13.50;1.00;;;;;;5071539;28;19999;-85
2024/03/12 13:51:33;;;;;;;;;;;13.50;1.00;;;;;;5064699;28;20356;-85
2024/03/12 13:53:58;;;;;;;;;;;13.50;1.00;;;;;;5068288;28;19908;-85
2024/03/12 13:56:23;;;;;;;;;;;13.40;1.00;;;;;;5071296;28;20267;-85
2024/03/12 13:58:49;;;;;;;;;;;13.40;1.00;;;;;;5065337;28;19957;-85
2024/03/12 14:01:16;;;;;;;;;;;13.50;1.00;;;;;;5065100;28;19917;-85
2024/03/12 14:03:42;;;;;;;;;;;13.50;1.00;;;;;;5070243;28;19978;-86
2024/03/12 14:06:08;;;;;;;;;;;13.70;1.00;;;;;;5064254;28;19909;-85
2024/03/12 14:08:34;;;;;;;;;;;13.80;1.00;;;;;;5057755;28;19909;-86
2024/03/12 14:11:00;;;;;;;;;;;13.90;1.00;;;;;;5062752;28;19999;-86
2024/03/12 14:13:27;;;;;;;;;;;14.00;1.00;;;;;;5068489;28;20325;-86
2024/03/12 14:15:53;;;;;;;;;;;14.10;1.00;;;;;;5064976;28;19956;-85
2024/03/12 14:18:23;;;;;;;;;;;14.20;1.00;;;;;;5064517;28;19954;-86
2024/03/12 14:20:50;;;;;;;;;;;14.30;1.00;;;;;;5066946;28;19939;-85
2024/03/12 14:23:16;;;;;;;;;;;14.30;1.00;;;;;;5052770;28;19909;-86
2024/03/12 14:25:41;;;;;;;;;;;14.30;1.00;;;;;;5061579;28;19909;-86
2024/03/12 14:28:07;;;;;;;;;;;14.30;1.00;;;;;;5059324;28;19913;-85
2024/03/12 14:30:32;;;;;;;;;;;14.30;1.00;;;;;;5065930;28;19916;-86
2024/03/12 14:32:58;;;;;;;;;;;14.30;1.00;;;;;;5069415;28;20378;-85
2024/03/12 14:35:24;;;;;;;;;;;14.20;1.00;;;;;;5056731;28;19909;-86
2024/03/12 14:37:50;;;;;;;;;;;14.20;1.00;;;;;;5066293;28;19908;-86
2024/03/12 14:40:16;;;;;;;;;;;14.00;1.00;;;;;;5068964;28;19987;-86